Airport View

Enter AWOS ICAO identifier for current METAR.

ex. KFNL

KJWY 120555Z AUTO 00000KT 10SM CLR 02/02 A3041 RMK AO2 T00220022 10065 20020 401030007

12 Dec 2019 06:08

Frequency: 119.575

Phone: 972-937-4747

Other Area AWOS: KLNC - KRBD - KGKY - KGPM

TAF KGKY 120520Z 1206/1306 16008KT P6SM BKN300